sensor_id;sensor_type;location;lat;lon;timestamp;P1;durP1;ratioP1;P2;durP2;ratioP2
78205;SDS011;67480;48.920;12.880;2023-09-30T00:00:21;18.45;;;10.95;;
78205;SDS011;67480;48.920;12.880;2023-09-30T00:02:47;24.25;;;12.35;;
78205;SDS011;67480;48.920;12.880;2023-09-30T00:05:12;25.95;;;11.95;;
78205;SDS011;67480;48.920;12.880;2023-09-30T00:07:39;21.83;;;12.25;;
78205;SDS011;67480;48.920;12.880;2023-09-30T00:10:05;22.17;;;11.32;;
78205;SDS011;67480;48.920;12.880;2023-09-30T00:12:31;26.30;;;11.90;;
78205;SDS011;67480;48.920;12.880;2023-09-30T00:14:57;24.15;;;12.60;;
78205;SDS011;67480;48.920;12.880;2023-09-30T00:17:22;24.27;;;12.23;;
78205;SDS011;67480;48.920;12.880;2023-09-30T00:19:48;19.20;;;11.10;;
78205;SDS011;67480;48.920;12.880;2023-09-30T00:22:13;31.60;;;12.95;;
78205;SDS011;67480;48.920;12.880;2023-09-30T00:24:38;24.38;;;12.45;;
78205;SDS011;67480;48.920;12.880;2023-09-30T00:27:04;24.65;;;12.63;;
78205;SDS011;67480;48.920;12.880;2023-09-30T00:29:29;28.23;;;12.20;;
78205;SDS011;67480;48.920;12.880;2023-09-30T00:31:55;24.73;;;11.93;;
78205;SDS011;67480;48.920;12.880;2023-09-30T00:34:20;26.10;;;11.23;;
78205;SDS011;67480;48.920;12.880;2023-09-30T00:36:49;23.38;;;11.07;;
78205;SDS011;67480;48.920;12.880;2023-09-30T00:39:14;29.40;;;12.43;;
78205;SDS011;67480;48.920;12.880;2023-09-30T00:41:40;23.77;;;12.13;;
78205;SDS011;67480;48.920;12.880;2023-09-30T00:44:05;24.40;;;12.65;;
78205;SDS011;67480;48.920;12.880;2023-09-30T00:46:33;27.10;;;12.80;;
78205;SDS011;67480;48.920;12.880;2023-09-30T00:49:00;26.92;;;12.38;;
78205;SDS011;67480;48.920;12.880;2023-09-30T00:51:27;24.00;;;12.30;;
78205;SDS011;67480;48.920;12.880;2023-09-30T00:53:54;23.38;;;11.43;;
78205;SDS011;67480;48.920;12.880;2023-09-30T00:56:25;23.13;;;11.48;;
78205;SDS011;67480;48.920;12.880;2023-09-30T00:58:52;23.55;;;11.15;;
78205;SDS011;67480;48.920;12.880;2023-09-30T01:01:18;23.38;;;11.38;;
78205;SDS011;67480;48.920;12.880;2023-09-30T01:03:48;25.88;;;11.65;;
78205;SDS011;67480;48.920;12.880;2023-09-30T01:06:13;23.80;;;12.00;;
78205;SDS011;67480;48.920;12.880;2023-09-30T01:08:39;23.20;;;11.35;;
78205;SDS011;67480;48.920;12.880;2023-09-30T01:11:04;25.70;;;12.30;;
78205;SDS011;67480;48.920;12.880;2023-09-30T01:13:34;24.65;;;11.82;;
78205;SDS011;67480;48.920;12.880;2023-09-30T01:16:06;26.65;;;11.98;;
78205;SDS011;67480;48.920;12.880;2023-09-30T01:18:40;29.65;;;12.13;;
78205;SDS011;67480;48.920;12.880;2023-09-30T01:21:07;23.42;;;10.98;;
78205;SDS011;67480;48.920;12.880;2023-09-30T01:23:40;20.83;;;11.55;;
78205;SDS011;67480;48.920;12.880;2023-09-30T01:26:08;24.10;;;12.15;;
78205;SDS011;67480;48.920;12.880;2023-09-30T01:28:34;23.50;;;11.73;;
78205;SDS011;67480;48.920;12.880;2023-09-30T01:31:00;24.10;;;12.57;;
78205;SDS011;67480;48.920;12.880;2023-09-30T01:33:26;28.27;;;12.18;;
78205;SDS011;67480;48.920;12.880;2023-09-30T01:35:52;24.55;;;11.27;;
78205;SDS011;67480;48.920;12.880;2023-09-30T01:38:17;27.45;;;13.00;;
78205;SDS011;67480;48.920;12.880;2023-09-30T01:40:43;29.65;;;12.35;;
78205;SDS011;67480;48.920;12.880;2023-09-30T01:43:08;24.15;;;11.50;;
78205;SDS011;67480;48.920;12.880;2023-09-30T01:45:34;24.00;;;11.43;;
78205;SDS011;67480;48.920;12.880;2023-09-30T01:48:01;24.63;;;11.95;;
78205;SDS011;67480;48.920;12.880;2023-09-30T01:50:27;25.70;;;12.15;;
78205;SDS011;67480;48.920;12.880;2023-09-30T01:52:53;22.35;;;10.88;;
78205;SDS011;67480;48.920;12.880;2023-09-30T01:55:18;24.17;;;11.13;;
78205;SDS011;67480;48.920;12.880;2023-09-30T01:57:43;25.65;;;12.55;;
78205;SDS011;67480;48.920;12.880;2023-09-30T02:00:09;26.20;;;12.75;;
78205;SDS011;67480;48.920;12.880;2023-09-30T02:02:35;25.52;;;11.50;;
78205;SDS011;67480;48.920;12.880;2023-09-30T02:05:01;27.30;;;11.68;;
78205;SDS011;67480;48.920;12.880;2023-09-30T02:07:27;24.77;;;11.55;;
78205;SDS011;67480;48.920;12.880;2023-09-30T02:09:54;25.35;;;11.68;;
78205;SDS011;67480;48.920;12.880;2023-09-30T02:12:19;22.45;;;11.65;;
78205;SDS011;67480;48.920;12.880;2023-09-30T02:14:45;24.83;;;11.48;;
78205;SDS011;67480;48.920;12.880;2023-09-30T02:17:11;28.08;;;13.05;;
78205;SDS011;67480;48.920;12.880;2023-09-30T02:19:38;23.48;;;11.52;;
78205;SDS011;67480;48.920;12.880;2023-09-30T02:22:03;24.35;;;11.13;;
78205;SDS011;67480;48.920;12.880;2023-09-30T02:24:29;24.00;;;11.38;;
78205;SDS011;67480;48.920;12.880;2023-09-30T02:26:55;25.25;;;12.27;;
78205;SDS011;67480;48.920;12.880;2023-09-30T02:29:20;25.17;;;12.10;;
78205;SDS011;67480;48.920;12.880;2023-09-30T02:31:46;27.50;;;12.40;;
78205;SDS011;67480;48.920;12.880;2023-09-30T02:34:11;25.63;;;12.48;;
78205;SDS011;67480;48.920;12.880;2023-09-30T02:36:37;27.08;;;12.85;;
78205;SDS011;67480;48.920;12.880;2023-09-30T02:39:05;27.05;;;11.65;;
78205;SDS011;67480;48.920;12.880;2023-09-30T02:41:30;25.77;;;11.80;;
78205;SDS011;67480;48.920;12.880;2023-09-30T02:43:56;24.33;;;12.80;;
78205;SDS011;67480;48.920;12.880;2023-09-30T02:46:21;25.60;;;12.02;;
78205;SDS011;67480;48.920;12.880;2023-09-30T02:48:47;24.05;;;12.15;;
78205;SDS011;67480;48.920;12.880;2023-09-30T02:51:12;24.13;;;11.95;;
78205;SDS011;67480;48.920;12.880;2023-09-30T02:53:38;21.90;;;10.73;;
78205;SDS011;67480;48.920;12.880;2023-09-30T02:56:03;24.85;;;11.73;;
78205;SDS011;67480;48.920;12.880;2023-09-30T02:58:29;25.65;;;12.27;;
78205;SDS011;67480;48.920;12.880;2023-09-30T03:00:55;24.92;;;11.65;;
78205;SDS011;67480;48.920;12.880;2023-09-30T03:03:21;22.45;;;11.32;;
78205;SDS011;67480;48.920;12.880;2023-09-30T03:05:46;21.23;;;11.27;;
78205;SDS011;67480;48.920;12.880;2023-09-30T03:08:14;28.42;;;11.68;;
78205;SDS011;67480;48.920;12.880;2023-09-30T03:10:39;23.55;;;11.45;;
78205;SDS011;67480;48.920;12.880;2023-09-30T03:13:05;27.33;;;12.50;;
78205;SDS011;67480;48.920;12.880;2023-09-30T03:15:32;22.98;;;11.48;;
78205;SDS011;67480;48.920;12.880;2023-09-30T03:17:58;27.52;;;11.90;;
78205;SDS011;67480;48.920;12.880;2023-09-30T03:20:24;25.50;;;12.45;;
78205;SDS011;67480;48.920;12.880;2023-09-30T03:22:50;24.98;;;11.35;;
78205;SDS011;67480;48.920;12.880;2023-09-30T03:25:17;24.55;;;10.95;;
78205;SDS011;67480;48.920;12.880;2023-09-30T03:27:44;23.33;;;10.95;;
78205;SDS011;67480;48.920;12.880;2023-09-30T03:30:11;21.35;;;10.63;;
78205;SDS011;67480;48.920;12.880;2023-09-30T03:32:38;25.13;;;11.75;;
78205;SDS011;67480;48.920;12.880;2023-09-30T03:35:07;22.70;;;11.43;;
78205;SDS011;67480;48.920;12.880;2023-09-30T03:37:36;21.83;;;10.18;;
78205;SDS011;67480;48.920;12.880;2023-09-30T03:40:06;21.27;;;11.27;;
78205;SDS011;67480;48.920;12.880;2023-09-30T03:42:45;20.98;;;11.38;;
78205;SDS011;67480;48.920;12.880;2023-09-30T03:45:14;22.73;;;11.13;;
78205;SDS011;67480;48.920;12.880;2023-09-30T03:47:39;21.48;;;11.82;;
78205;SDS011;67480;48.920;12.880;2023-09-30T03:50:06;25.02;;;11.40;;
78205;SDS011;67480;48.920;12.880;2023-09-30T03:52:39;27.42;;;12.18;;
78205;SDS011;67480;48.920;12.880;2023-09-30T03:55:09;25.45;;;11.73;;
78205;SDS011;67480;48.920;12.880;2023-09-30T03:57:36;23.40;;;10.75;;
78205;SDS011;67480;48.920;12.880;2023-09-30T04:00:02;24.60;;;11.52;;
78205;SDS011;67480;48.920;12.880;2023-09-30T04:02:31;24.90;;;11.93;;
78205;SDS011;67480;48.920;12.880;2023-09-30T04:04:57;21.95;;;11.57;;
78205;SDS011;67480;48.920;12.880;2023-09-30T04:07:22;21.15;;;10.88;;
78205;SDS011;67480;48.920;12.880;2023-09-30T04:09:54;24.92;;;11.20;;
78205;SDS011;67480;48.920;12.880;2023-09-30T04:12:20;20.50;;;10.80;;
78205;SDS011;67480;48.920;12.880;2023-09-30T04:14:45;20.98;;;10.38;;
78205;SDS011;67480;48.920;12.880;2023-09-30T04:17:10;23.08;;;10.68;;
78205;SDS011;67480;48.920;12.880;2023-09-30T04:19:36;20.40;;;10.27;;
78205;SDS011;67480;48.920;12.880;2023-09-30T04:22:02;20.77;;;11.20;;
78205;SDS011;67480;48.920;12.880;2023-09-30T04:24:27;24.88;;;11.73;;
78205;SDS011;67480;48.920;12.880;2023-09-30T04:26:54;22.58;;;10.63;;
78205;SDS011;67480;48.920;12.880;2023-09-30T04:29:22;21.33;;;10.77;;
78205;SDS011;67480;48.920;12.880;2023-09-30T04:31:48;23.13;;;11.02;;
78205;SDS011;67480;48.920;12.880;2023-09-30T04:34:14;25.08;;;11.90;;
78205;SDS011;67480;48.920;12.880;2023-09-30T04:36:40;22.13;;;10.88;;
78205;SDS011;67480;48.920;12.880;2023-09-30T04:39:05;22.63;;;10.93;;
78205;SDS011;67480;48.920;12.880;2023-09-30T04:41:30;21.80;;;11.00;;
78205;SDS011;67480;48.920;12.880;2023-09-30T04:43:56;23.98;;;11.35;;
78205;SDS011;67480;48.920;12.880;2023-09-30T04:46:21;22.17;;;10.98;;
78205;SDS011;67480;48.920;12.880;2023-09-30T04:48:49;24.95;;;10.65;;
78205;SDS011;67480;48.920;12.880;2023-09-30T04:51:17;24.55;;;11.13;;
78205;SDS011;67480;48.920;12.880;2023-09-30T04:53:43;22.40;;;11.00;;
78205;SDS011;67480;48.920;12.880;2023-09-30T04:56:11;21.42;;;10.70;;
78205;SDS011;67480;48.920;12.880;2023-09-30T04:58:37;20.85;;;10.60;;
78205;SDS011;67480;48.920;12.880;2023-09-30T05:01:03;21.27;;;9.88;;
78205;SDS011;67480;48.920;12.880;2023-09-30T05:03:28;21.58;;;10.55;;
78205;SDS011;67480;48.920;12.880;2023-09-30T05:05:54;23.33;;;11.35;;
78205;SDS011;67480;48.920;12.880;2023-09-30T05:08:23;20.67;;;10.55;;
78205;SDS011;67480;48.920;12.880;2023-09-30T05:10:49;21.02;;;9.95;;
78205;SDS011;67480;48.920;12.880;2023-09-30T05:13:15;20.35;;;9.88;;
78205;SDS011;67480;48.920;12.880;2023-09-30T05:15:40;21.80;;;10.63;;
78205;SDS011;67480;48.920;12.880;2023-09-30T05:18:06;20.33;;;10.10;;
78205;SDS011;67480;48.920;12.880;2023-09-30T05:20:33;22.50;;;10.35;;
78205;SDS011;67480;48.920;12.880;2023-09-30T05:23:01;19.08;;;10.32;;
78205;SDS011;67480;48.920;12.880;2023-09-30T05:25:28;22.75;;;10.18;;
78205;SDS011;67480;48.920;12.880;2023-09-30T05:27:53;24.05;;;10.35;;
78205;SDS011;67480;48.920;12.880;2023-09-30T05:30:19;20.02;;;9.65;;
78205;SDS011;67480;48.920;12.880;2023-09-30T05:32:45;20.05;;;9.27;;
78205;SDS011;67480;48.920;12.880;2023-09-30T05:35:11;21.25;;;9.80;;
78205;SDS011;67480;48.920;12.880;2023-09-30T05:37:38;17.55;;;8.93;;
78205;SDS011;67480;48.920;12.880;2023-09-30T05:40:07;18.08;;;9.25;;
78205;SDS011;67480;48.920;12.880;2023-09-30T05:42:52;21.70;;;9.48;;
78205;SDS011;67480;48.920;12.880;2023-09-30T05:45:19;16.58;;;9.15;;
78205;SDS011;67480;48.920;12.880;2023-09-30T05:47:44;17.20;;;8.20;;
78205;SDS011;67480;48.920;12.880;2023-09-30T05:50:10;16.83;;;8.23;;
78205;SDS011;67480;48.920;12.880;2023-09-30T05:52:41;19.52;;;9.23;;
78205;SDS011;67480;48.920;12.880;2023-09-30T05:55:08;15.10;;;7.90;;
78205;SDS011;67480;48.920;12.880;2023-09-30T05:57:33;16.58;;;8.63;;
78205;SDS011;67480;48.920;12.880;2023-09-30T06:00:00;19.60;;;9.18;;
78205;SDS011;67480;48.920;12.880;2023-09-30T06:02:26;16.35;;;8.35;;
78205;SDS011;67480;48.920;12.880;2023-09-30T06:04:51;22.05;;;9.77;;
78205;SDS011;67480;48.920;12.880;2023-09-30T06:07:18;17.90;;;8.98;;
78205;SDS011;67480;48.920;12.880;2023-09-30T06:09:45;20.08;;;9.05;;
78205;SDS011;67480;48.920;12.880;2023-09-30T06:12:13;20.63;;;9.02;;
78205;SDS011;67480;48.920;12.880;2023-09-30T06:14:38;21.08;;;10.02;;
78205;SDS011;67480;48.920;12.880;2023-09-30T06:17:05;19.20;;;9.23;;
78205;SDS011;67480;48.920;12.880;2023-09-30T06:19:32;17.77;;;10.18;;
78205;SDS011;67480;48.920;12.880;2023-09-30T06:21:58;21.10;;;9.73;;
78205;SDS011;67480;48.920;12.880;2023-09-30T06:24:24;20.30;;;9.55;;
78205;SDS011;67480;48.920;12.880;2023-09-30T06:26:50;20.23;;;9.63;;
78205;SDS011;67480;48.920;12.880;2023-09-30T06:29:16;22.65;;;11.15;;
78205;SDS011;67480;48.920;12.880;2023-09-30T06:31:42;22.42;;;11.32;;
78205;SDS011;67480;48.920;12.880;2023-09-30T06:34:08;23.85;;;10.57;;
78205;SDS011;67480;48.920;12.880;2023-09-30T06:36:36;22.85;;;11.07;;
78205;SDS011;67480;48.920;12.880;2023-09-30T06:39:02;24.13;;;10.73;;
78205;SDS011;67480;48.920;12.880;2023-09-30T06:41:30;22.83;;;10.00;;
78205;SDS011;67480;48.920;12.880;2023-09-30T06:43:56;22.83;;;11.30;;
78205;SDS011;67480;48.920;12.880;2023-09-30T06:46:22;27.50;;;12.30;;
78205;SDS011;67480;48.920;12.880;2023-09-30T06:48:49;21.48;;;11.15;;
78205;SDS011;67480;48.920;12.880;2023-09-30T06:51:17;19.75;;;10.07;;
78205;SDS011;67480;48.920;12.880;2023-09-30T06:53:43;22.85;;;10.13;;
78205;SDS011;67480;48.920;12.880;2023-09-30T06:56:09;21.45;;;10.95;;
78205;SDS011;67480;48.920;12.880;2023-09-30T06:58:34;21.05;;;11.10;;
78205;SDS011;67480;48.920;12.880;2023-09-30T07:01:00;20.75;;;10.77;;
78205;SDS011;67480;48.920;12.880;2023-09-30T07:03:26;21.58;;;10.90;;
78205;SDS011;67480;48.920;12.880;2023-09-30T07:05:51;20.40;;;9.80;;
78205;SDS011;67480;48.920;12.880;2023-09-30T07:08:19;22.75;;;11.20;;
78205;SDS011;67480;48.920;12.880;2023-09-30T07:10:46;21.85;;;10.30;;
78205;SDS011;67480;48.920;12.880;2023-09-30T07:13:14;22.67;;;9.70;;
78205;SDS011;67480;48.920;12.880;2023-09-30T07:15:40;18.83;;;9.93;;
78205;SDS011;67480;48.920;12.880;2023-09-30T07:18:05;18.60;;;9.45;;
78205;SDS011;67480;48.920;12.880;2023-09-30T07:20:31;19.58;;;9.75;;
78205;SDS011;67480;48.920;12.880;2023-09-30T07:23:01;21.38;;;9.18;;
78205;SDS011;67480;48.920;12.880;2023-09-30T07:25:28;25.77;;;9.93;;
78205;SDS011;67480;48.920;12.880;2023-09-30T07:27:57;20.48;;;9.98;;
78205;SDS011;67480;48.920;12.880;2023-09-30T07:30:23;19.17;;;9.35;;
78205;SDS011;67480;48.920;12.880;2023-09-30T07:32:49;19.90;;;10.10;;
78205;SDS011;67480;48.920;12.880;2023-09-30T07:35:15;20.15;;;9.50;;
78205;SDS011;67480;48.920;12.880;2023-09-30T07:37:40;19.08;;;9.55;;
78205;SDS011;67480;48.920;12.880;2023-09-30T07:40:07;21.00;;;10.27;;
78205;SDS011;67480;48.920;12.880;2023-09-30T07:42:33;16.48;;;9.25;;
78205;SDS011;67480;48.920;12.880;2023-09-30T07:44:58;19.67;;;9.13;;
78205;SDS011;67480;48.920;12.880;2023-09-30T07:47:24;18.63;;;9.52;;
78205;SDS011;67480;48.920;12.880;2023-09-30T07:49:49;16.67;;;9.57;;
78205;SDS011;67480;48.920;12.880;2023-09-30T07:52:15;18.60;;;9.55;;
78205;SDS011;67480;48.920;12.880;2023-09-30T07:54:40;17.60;;;9.55;;
78205;SDS011;67480;48.920;12.880;2023-09-30T07:57:06;18.95;;;10.32;;
78205;SDS011;67480;48.920;12.880;2023-09-30T07:59:31;19.83;;;10.18;;
78205;SDS011;67480;48.920;12.880;2023-09-30T08:01:58;17.98;;;10.15;;
78205;SDS011;67480;48.920;12.880;2023-09-30T08:04:26;18.08;;;10.02;;
78205;SDS011;67480;48.920;12.880;2023-09-30T08:06:51;17.33;;;10.65;;
78205;SDS011;67480;48.920;12.880;2023-09-30T08:09:18;19.85;;;11.80;;
78205;SDS011;67480;48.920;12.880;2023-09-30T08:11:44;18.52;;;10.05;;
78205;SDS011;67480;48.920;12.880;2023-09-30T08:14:09;18.05;;;10.27;;
78205;SDS011;67480;48.920;12.880;2023-09-30T08:16:35;18.15;;;10.95;;
78205;SDS011;67480;48.920;12.880;2023-09-30T08:19:02;17.85;;;10.63;;
78205;SDS011;67480;48.920;12.880;2023-09-30T08:21:30;18.17;;;12.02;;
78205;SDS011;67480;48.920;12.880;2023-09-30T08:23:59;18.23;;;11.85;;
78205;SDS011;67480;48.920;12.880;2023-09-30T08:26:25;16.05;;;10.05;;
78205;SDS011;67480;48.920;12.880;2023-09-30T08:28:50;17.42;;;10.05;;
78205;SDS011;67480;48.920;12.880;2023-09-30T08:31:19;16.90;;;10.70;;
78205;SDS011;67480;48.920;12.880;2023-09-30T08:33:46;16.55;;;10.43;;
78205;SDS011;67480;48.920;12.880;2023-09-30T08:36:12;20.58;;;11.30;;
78205;SDS011;67480;48.920;12.880;2023-09-30T08:38:39;18.13;;;10.15;;
78205;SDS011;67480;48.920;12.880;2023-09-30T08:41:05;16.45;;;10.98;;
78205;SDS011;67480;48.920;12.880;2023-09-30T08:43:35;18.90;;;10.73;;
78205;SDS011;67480;48.920;12.880;2023-09-30T08:46:04;19.27;;;10.52;;
78205;SDS011;67480;48.920;12.880;2023-09-30T08:48:29;15.40;;;9.48;;
78205;SDS011;67480;48.920;12.880;2023-09-30T08:50:58;18.52;;;11.32;;
78205;SDS011;67480;48.920;12.880;2023-09-30T08:53:24;18.25;;;10.85;;
78205;SDS011;67480;48.920;12.880;2023-09-30T08:55:53;15.45;;;10.02;;
78205;SDS011;67480;48.920;12.880;2023-09-30T08:58:21;20.88;;;12.32;;
78205;SDS011;67480;48.920;12.880;2023-09-30T09:00:50;21.75;;;15.43;;
78205;SDS011;67480;48.920;12.880;2023-09-30T09:03:15;21.75;;;13.27;;
78205;SDS011;67480;48.920;12.880;2023-09-30T09:05:43;15.57;;;10.63;;
78205;SDS011;67480;48.920;12.880;2023-09-30T09:08:08;16.67;;;10.25;;
78205;SDS011;67480;48.920;12.880;2023-09-30T09:10:34;16.27;;;10.25;;
78205;SDS011;67480;48.920;12.880;2023-09-30T09:13:00;17.83;;;10.52;;
78205;SDS011;67480;48.920;12.880;2023-09-30T09:15:26;17.00;;;10.65;;
78205;SDS011;67480;48.920;12.880;2023-09-30T09:17:56;17.13;;;10.25;;
78205;SDS011;67480;48.920;12.880;2023-09-30T09:20:23;15.75;;;9.07;;
78205;SDS011;67480;48.920;12.880;2023-09-30T09:22:51;14.05;;;8.55;;
78205;SDS011;67480;48.920;12.880;2023-09-30T09:25:19;12.88;;;8.52;;
78205;SDS011;67480;48.920;12.880;2023-09-30T09:27:44;13.23;;;8.40;;
78205;SDS011;67480;48.920;12.880;2023-09-30T09:30:26;11.48;;;8.00;;
78205;SDS011;67480;48.920;12.880;2023-09-30T09:32:59;11.02;;;7.57;;
78205;SDS011;67480;48.920;12.880;2023-09-30T09:35:26;16.25;;;8.23;;
78205;SDS011;67480;48.920;12.880;2023-09-30T09:37:56;11.45;;;7.38;;
78205;SDS011;67480;48.920;12.880;2023-09-30T09:40:23;12.02;;;7.93;;
78205;SDS011;67480;48.920;12.880;2023-09-30T09:42:51;11.82;;;7.43;;
78205;SDS011;67480;48.920;12.880;2023-09-30T09:45:20;12.73;;;7.28;;
78205;SDS011;67480;48.920;12.880;2023-09-30T09:47:48;11.82;;;7.63;;
78205;SDS011;67480;48.920;12.880;2023-09-30T09:50:13;10.20;;;6.43;;
78205;SDS011;67480;48.920;12.880;2023-09-30T09:52:40;12.90;;;7.35;;
78205;SDS011;67480;48.920;12.880;2023-09-30T09:55:08;13.05;;;7.18;;
78205;SDS011;67480;48.920;12.880;2023-09-30T09:57:35;12.00;;;7.18;;
78205;SDS011;67480;48.920;12.880;2023-09-30T10:00:01;10.70;;;7.13;;
78205;SDS011;67480;48.920;12.880;2023-09-30T10:02:31;13.32;;;7.53;;
78205;SDS011;67480;48.920;12.880;2023-09-30T10:04:57;9.95;;;6.97;;
78205;SDS011;67480;48.920;12.880;2023-09-30T10:07:28;10.65;;;6.63;;
78205;SDS011;67480;48.920;12.880;2023-09-30T10:10:02;11.77;;;6.60;;
78205;SDS011;67480;48.920;12.880;2023-09-30T10:12:39;11.98;;;6.50;;
78205;SDS011;67480;48.920;12.880;2023-09-30T10:20:37;9.70;;;6.00;;
78205;SDS011;67480;48.920;12.880;2023-09-30T10:28:39;8.13;;;5.47;;
78205;SDS011;67480;48.920;12.880;2023-09-30T10:36:29;10.43;;;6.45;;
78205;SDS011;67480;48.920;12.880;2023-09-30T10:38:56;10.00;;;6.45;;
78205;SDS011;67480;48.920;12.880;2023-09-30T10:46:50;8.02;;;4.82;;
78205;SDS011;67480;48.920;12.880;2023-09-30T10:49:17;8.27;;;5.43;;
78205;SDS011;67480;48.920;12.880;2023-09-30T10:51:43;11.23;;;6.13;;
78205;SDS011;67480;48.920;12.880;2023-09-30T10:54:12;8.73;;;5.78;;
78205;SDS011;67480;48.920;12.880;2023-09-30T10:56:38;8.57;;;5.53;;
78205;SDS011;67480;48.920;12.880;2023-09-30T10:59:03;7.00;;;4.63;;
78205;SDS011;67480;48.920;12.880;2023-09-30T11:01:33;9.27;;;4.22;;
78205;SDS011;67480;48.920;12.880;2023-09-30T11:04:00;7.32;;;4.60;;
78205;SDS011;67480;48.920;12.880;2023-09-30T11:06:31;7.57;;;4.72;;
78205;SDS011;67480;48.920;12.880;2023-09-30T11:09:05;6.68;;;5.22;;
78205;SDS011;67480;48.920;12.880;2023-09-30T11:14:32;7.88;;;4.63;;
78205;SDS011;67480;48.920;12.880;2023-09-30T11:19:24;6.97;;;4.88;;
78205;SDS011;67480;48.920;12.880;2023-09-30T11:21:55;8.50;;;5.03;;
78205;SDS011;67480;48.920;12.880;2023-09-30T11:24:23;5.93;;;4.07;;
78205;SDS011;67480;48.920;12.880;2023-09-30T11:26:52;8.00;;;4.75;;
78205;SDS011;67480;48.920;12.880;2023-09-30T11:29:21;7.90;;;4.97;;
78205;SDS011;67480;48.920;12.880;2023-09-30T11:31:47;5.15;;;3.88;;
78205;SDS011;67480;48.920;12.880;2023-09-30T11:34:16;7.25;;;4.78;;
78205;SDS011;67480;48.920;12.880;2023-09-30T11:36:48;5.88;;;3.88;;
78205;SDS011;67480;48.920;12.880;2023-09-30T11:39:28;6.43;;;4.45;;
78205;SDS011;67480;48.920;12.880;2023-09-30T11:41:55;7.55;;;4.85;;
78205;SDS011;67480;48.920;12.880;2023-09-30T11:44:22;6.10;;;4.65;;
78205;SDS011;67480;48.920;12.880;2023-09-30T11:49:33;7.03;;;3.60;;
78205;SDS011;67480;48.920;12.880;2023-09-30T11:52:00;5.78;;;4.03;;
78205;SDS011;67480;48.920;12.880;2023-09-30T11:54:28;4.97;;;3.75;;
78205;SDS011;67480;48.920;12.880;2023-09-30T11:56:55;7.38;;;4.22;;
78205;SDS011;67480;48.920;12.880;2023-09-30T11:59:21;6.72;;;4.70;;
78205;SDS011;67480;48.920;12.880;2023-09-30T12:01:47;5.03;;;3.13;;
78205;SDS011;67480;48.920;12.880;2023-09-30T12:04:16;5.18;;;3.38;;
78205;SDS011;67480;48.920;12.880;2023-09-30T12:06:44;5.72;;;4.07;;
78205;SDS011;67480;48.920;12.880;2023-09-30T12:09:12;4.47;;;3.30;;
78205;SDS011;67480;48.920;12.880;2023-09-30T12:11:40;4.20;;;3.03;;
78205;SDS011;67480;48.920;12.880;2023-09-30T12:14:10;4.47;;;2.92;;
78205;SDS011;67480;48.920;12.880;2023-09-30T12:16:36;3.30;;;2.70;;
78205;SDS011;67480;48.920;12.880;2023-09-30T12:19:02;3.58;;;3.28;;
78205;SDS011;67480;48.920;12.880;2023-09-30T12:21:28;3.05;;;2.30;;
78205;SDS011;67480;48.920;12.880;2023-09-30T12:23:53;4.90;;;3.25;;
78205;SDS011;67480;48.920;12.880;2023-09-30T12:26:19;5.15;;;3.17;;
78205;SDS011;67480;48.920;12.880;2023-09-30T12:28:45;4.97;;;3.50;;
78205;SDS011;67480;48.920;12.880;2023-09-30T12:31:11;4.03;;;2.70;;
78205;SDS011;67480;48.920;12.880;2023-09-30T12:33:36;4.03;;;2.15;;
78205;SDS011;67480;48.920;12.880;2023-09-30T12:36:04;3.95;;;2.53;;
78205;SDS011;67480;48.920;12.880;2023-09-30T12:38:29;3.92;;;2.40;;
78205;SDS011;67480;48.920;12.880;2023-09-30T12:40:55;3.47;;;2.75;;
78205;SDS011;67480;48.920;12.880;2023-09-30T12:43:20;3.65;;;2.40;;
78205;SDS011;67480;48.920;12.880;2023-09-30T12:45:47;3.17;;;2.60;;
78205;SDS011;67480;48.920;12.880;2023-09-30T12:48:15;3.92;;;2.67;;
78205;SDS011;67480;48.920;12.880;2023-09-30T12:50:42;4.40;;;3.00;;
78205;SDS011;67480;48.920;12.880;2023-09-30T12:53:09;3.78;;;2.63;;
78205;SDS011;67480;48.920;12.880;2023-09-30T12:55:35;3.63;;;2.60;;
78205;SDS011;67480;48.920;12.880;2023-09-30T12:58:01;4.85;;;3.22;;
78205;SDS011;67480;48.920;12.880;2023-09-30T13:00:27;5.63;;;3.63;;
78205;SDS011;67480;48.920;12.880;2023-09-30T13:02:56;4.05;;;2.97;;
78205;SDS011;67480;48.920;12.880;2023-09-30T13:05:21;4.18;;;2.67;;
78205;SDS011;67480;48.920;12.880;2023-09-30T13:07:48;6.50;;;3.63;;
78205;SDS011;67480;48.920;12.880;2023-09-30T13:10:14;4.68;;;3.55;;
78205;SDS011;67480;48.920;12.880;2023-09-30T13:12:45;3.10;;;2.10;;
78205;SDS011;67480;48.920;12.880;2023-09-30T13:15:11;4.82;;;2.75;;
78205;SDS011;67480;48.920;12.880;2023-09-30T13:17:39;4.88;;;3.03;;
78205;SDS011;67480;48.920;12.880;2023-09-30T13:20:04;6.75;;;4.35;;
78205;SDS011;67480;48.920;12.880;2023-09-30T13:22:30;5.68;;;3.17;;
78205;SDS011;67480;48.920;12.880;2023-09-30T13:24:57;7.07;;;3.83;;
78205;SDS011;67480;48.920;12.880;2023-09-30T13:27:25;3.85;;;2.83;;
78205;SDS011;67480;48.920;12.880;2023-09-30T13:29:50;3.92;;;2.67;;
78205;SDS011;67480;48.920;12.880;2023-09-30T13:32:19;5.45;;;2.80;;
78205;SDS011;67480;48.920;12.880;2023-09-30T13:34:45;3.90;;;1.60;;
78205;SDS011;67480;48.920;12.880;2023-09-30T13:37:10;1.60;;;1.30;;
78205;SDS011;67480;48.920;12.880;2023-09-30T13:39:36;2.25;;;1.67;;
78205;SDS011;67480;48.920;12.880;2023-09-30T13:42:03;2.22;;;1.80;;
78205;SDS011;67480;48.920;12.880;2023-09-30T13:44:29;2.72;;;2.17;;
78205;SDS011;67480;48.920;12.880;2023-09-30T13:46:54;2.30;;;1.77;;
78205;SDS011;67480;48.920;12.880;2023-09-30T13:49:20;2.10;;;1.90;;
78205;SDS011;67480;48.920;12.880;2023-09-30T13:51:48;3.47;;;2.20;;
78205;SDS011;67480;48.920;12.880;2023-09-30T13:54:14;4.40;;;1.98;;
78205;SDS011;67480;48.920;12.880;2023-09-30T13:56:40;2.20;;;1.95;;
78205;SDS011;67480;48.920;12.880;2023-09-30T13:59:05;1.50;;;1.40;;
78205;SDS011;67480;48.920;12.880;2023-09-30T14:01:31;1.30;;;1.20;;
78205;SDS011;67480;48.920;12.880;2023-09-30T14:03:57;1.10;;;0.95;;
78205;SDS011;67480;48.920;12.880;2023-09-30T14:06:23;1.25;;;1.20;;
78205;SDS011;67480;48.920;12.880;2023-09-30T14:08:48;1.05;;;1.05;;
78205;SDS011;67480;48.920;12.880;2023-09-30T14:11:14;0.93;;;0.93;;
78205;SDS011;67480;48.920;12.880;2023-09-30T14:13:40;1.30;;;0.90;;
78205;SDS011;67480;48.920;12.880;2023-09-30T14:16:06;0.98;;;0.90;;
78205;SDS011;67480;48.920;12.880;2023-09-30T14:18:32;1.35;;;0.93;;
78205;SDS011;67480;48.920;12.880;2023-09-30T14:20:58;1.48;;;0.90;;
78205;SDS011;67480;48.920;12.880;2023-09-30T14:23:24;0.98;;;0.98;;
78205;SDS011;67480;48.920;12.880;2023-09-30T14:25:53;1.85;;;0.90;;
78205;SDS011;67480;48.920;12.880;2023-09-30T14:28:21;1.23;;;1.05;;
78205;SDS011;67480;48.920;12.880;2023-09-30T14:30:47;1.13;;;1.13;;
78205;SDS011;67480;48.920;12.880;2023-09-30T14:33:18;1.02;;;1.00;;
78205;SDS011;67480;48.920;12.880;2023-09-30T14:35:44;1.00;;;1.00;;
78205;SDS011;67480;48.920;12.880;2023-09-30T14:38:10;1.45;;;1.05;;
78205;SDS011;67480;48.920;12.880;2023-09-30T14:40:37;1.05;;;0.95;;
78205;SDS011;67480;48.920;12.880;2023-09-30T14:43:07;1.10;;;1.00;;
78205;SDS011;67480;48.920;12.880;2023-09-30T14:45:38;1.38;;;1.05;;